Terminal Aerodrome Forecast
Issued by NWS Billings, MT

Home | Current Version | Previous Version | Text Only | Print | Product List | Glossary On
Versions: 1 2 3 4 5 6 7 8 9 10 11 12 13 14 15 16 17 18 19 20 21 22 23 24 25 26 27 28 29 30 31 32
000
FTUS45 KBYZ 251725
TAFBIL
TAF
KBIL 251725Z 2518/2618 VRB06KT 6SM -SHRA FEW040 BKN060
     FM260300 VRB06KT P6SM VCSH SCT070
     FM260600 VRB06KT P6SM SCT070=

USA.gov is the U.S. government's official web portal to all federal, state and local government web resources and services.